Fenwick

*Note: All times are displayed in the local standard time of the station location.
**Rain - Equipment is designed to accurately record liquid precipitation; under conditions when precipitation is not in liquid form, the data displayed may not properly reflect rainfall values.

Date Max Temp
(°C)
Min Temp
(°C)
Avg Temp
(°C)
Rain (mm) Avg RH (%)
Sun, Dec 10, 2017 -2.0 -4.0 -2.9 0.0 79.0
Sat, Dec 09, 2017 0.9 -3.8 -1.3 0.0 68.4
Fri, Dec 08, 2017 -0.3 -4.9 -2.5 0.0 67.3
Thu, Dec 07, 2017 0.8 -4.2 -1.4 0.0 64.3
Wed, Dec 06, 2017 3.3 -1.3 0.9 0.0 58.3
Tue, Dec 05, 2017 10.5 0.0 6.6 10.4 78.3
Mon, Dec 04, 2017 10.6 -2.1 5.4 0.2 77.1
DateTime Avg Temp (°C) Rain (mm) RH (%)
Mon, Dec 11, 2017 01:00 -3.0 0.0 82.0
Mon, Dec 11, 2017 00:00 -3.4 0.0 82.8
Sun, Dec 10, 2017 23:00 -3.3 0.0 80.8
Sun, Dec 10, 2017 22:00 -3.1 0.0 78.0
Sun, Dec 10, 2017 21:00 -2.8 0.0 75.8
Sun, Dec 10, 2017 20:00 -2.8 0.0 72.8
Sun, Dec 10, 2017 19:00 -2.7 0.0 72.3
Sun, Dec 10, 2017 18:00 -2.4 0.0 68.3
Sun, Dec 10, 2017 17:00 -2.3 0.0 65.5
Sun, Dec 10, 2017 16:00 -2.1 0.0 69.8
Sun, Dec 10, 2017 15:00 -2.1 0.0 72.3
Sun, Dec 10, 2017 14:00 -2.2 0.0 73.8
Sun, Dec 10, 2017 13:00 -2.2 0.0 72.8
Sun, Dec 10, 2017 12:00 -2.3 0.0 69.5
Sun, Dec 10, 2017 11:00 -2.7 0.0 67.5
Sun, Dec 10, 2017 10:00 -3.1 0.0 69.3
Sun, Dec 10, 2017 09:00 -3.5 0.0 73.5
Sun, Dec 10, 2017 08:00 -3.5 0.0 76.8
Sun, Dec 10, 2017 07:00 -3.9 0.0 87.3
Sun, Dec 10, 2017 06:00 -3.8 0.0 91.5
Sun, Dec 10, 2017 05:00 -3.3 0.0 95.8
Sun, Dec 10, 2017 04:00 -3.1 0.0 96.0
Sun, Dec 10, 2017 03:00 -3.1 0.0 94.8
Sun, Dec 10, 2017 02:00 -3.0 0.0 94.3
Sun, Dec 10, 2017 01:00 -2.8 0.0 96.0
Sun, Dec 10, 2017 00:00 -2.9 0.0 96.3
Sat, Dec 09, 2017 23:00 -3.4 0.0 97.5
Sat, Dec 09, 2017 22:00 -3.2 0.0 94.5
Sat, Dec 09, 2017 21:00 -2.5 0.0 86.5
Sat, Dec 09, 2017 20:00 -1.7 0.0 74.3
Sat, Dec 09, 2017 19:00 -1.0 0.0 62.3
Sat, Dec 09, 2017 18:00 -1.0 0.0 63.0
Sat, Dec 09, 2017 17:00 -0.6 0.0 60.5
Sat, Dec 09, 2017 16:00 0.0 0.0 55.3
Sat, Dec 09, 2017 15:00 0.1 0.0 54.0
Sat, Dec 09, 2017 14:00 0.1 0.0 56.0
Sat, Dec 09, 2017 13:00 -0.2 0.0 58.3
Sat, Dec 09, 2017 12:00 0.1 0.0 53.8
Sat, Dec 09, 2017 11:00 0.3 0.0 56.0
Sat, Dec 09, 2017 10:00 -0.1 0.0 62.0
Sat, Dec 09, 2017 09:00 -2.8 0.0 78.5
Sat, Dec 09, 2017 08:00 -2.2 0.0 76.8
Sat, Dec 09, 2017 07:00 -1.3 0.0 76.3
Sat, Dec 09, 2017 06:00 -1.0 0.0 75.0
Sat, Dec 09, 2017 05:00 -1.0 0.0 71.3
Sat, Dec 09, 2017 04:00 -1.3 0.0 59.5
Sat, Dec 09, 2017 03:00 -1.7 0.0 58.0
Sat, Dec 09, 2017 02:00 -1.9 0.0 58.5


asterix Register now to access more data! asterix